Latest Weather Observations for Normanton

IDQ60801

Issued at 6:35 pm EST Sunday 1 February 2015 (issued every 30 minutes, with the page automatically refreshed every 10 minutes)

About weather observations | Map of weather stations | Latest weather observations for QLD | Other Formats
Station Details ID: 029063 Name: NORMANTON AIRPORT Lat: -17.69 Lon: 141.07 Height: 18.42 m
Data from the previous 72 hours. | See also: Recent months at Normanton
Date/Time
EST
Temp
°C
App
Temp
°C
Dew
Point
Rel
Hum
%
Delta-T
°C
Wind Press
QNH
hPa
Press
MSL
hPa
Rain
since 9 am
mm
Dir
 
Spd
km/h
Gust
km/h
Spd
kts
Gust
kts
01/06:30pm 29.0 34.8 27.7 93 0.9 N 13 17 7 9 1004.5 - 4.8
01/06:00pm 28.5 34.5 28.5 100 0.0 N 15 19 8 10 1004.3 - 4.8
01/05:30pm 26.2 29.9 24.6 91 1.1 W 13 26 7 14 1004.9 - 1.8
01/05:00pm 30.8 32.7 23.5 65 5.1 S 19 33 10 18 1005.4 - 0.0
01/04:30pm 32.4 35.4 25.5 67 4.9 N 20 32 11 17 1004.1 - 0.0
01/04:00pm 33.7 35.3 25.1 60 6.1 NNW 26 35 14 19 1004.6 - 0.0
01/03:30pm 34.9 36.9 25.7 59 6.6 NNW 26 37 14 20 1004.4 - 0.0
01/03:00pm 34.5 37.3 25.3 58 6.6 N 20 30 11 16 1004.6 1004.4 0.0
01/02:30pm 34.1 36.9 24.9 58 6.5 N 19 32 10 17 1005.0 - 0.0
01/02:00pm 34.5 37.5 25.3 58 6.6 N 19 28 10 15 1005.3 - 0.0
01/01:30pm 34.6 37.7 24.2 54 7.3 N 15 26 8 14 1005.7 - 0.0
01/01:00pm 34.8 38.2 25.3 57 6.8 N 17 26 9 14 1006.0 - 0.0
01/12:30pm 34.2 37.2 24.7 57 6.7 N 17 24 9 13 1006.4 - 0.0
01/12:00pm 34.6 36.6 23.6 52 7.7 NNW 19 26 10 14 1006.8 1006.6 0.0
01/11:30am 33.6 37.2 25.0 60 6.1 N 15 20 8 11 1007.2 - 0.0
01/11:00am 33.0 36.7 24.5 61 6.0 N 13 26 7 14 1007.6 - 0.0
01/10:30am 32.3 37.0 25.6 67 4.8 N 11 17 6 9 1007.7 - 0.0
01/10:00am 31.3 36.2 25.9 73 3.9 N 11 22 6 12 1007.9 - 0.0
01/09:30am 31.3 36.5 26.3 75 3.6 N 11 20 6 11 1007.7 - 0.0
01/09:00am 31.1 36.4 26.4 76 3.4 NNE 11 17 6 9 1007.6 1007.4 0.0
01/08:30am 30.7 37.2 27.1 81 2.6 ENE 7 13 4 7 1007.4 - 0.0
01/08:00am 29.2 35.5 27.4 90 1.3 ENE 9 13 5 7 1007.3 - 0.0
01/07:30am 28.9 36.0 28.0 95 0.7 E 7 11 4 6 1007.1 - 0.0
01/07:00am 27.6 34.7 27.6 100 0.0 E 6 9 3 5 1006.8 - 0.0
01/06:30am 27.3 33.6 27.3 100 0.0 E 9 11 5 6 1006.5 - 0.0
01/06:00am 27.5 34.3 27.5 100 0.0 ESE 7 9 4 5 1005.9 1005.7 0.0
01/05:30am 27.6 34.5 27.6 100 0.0 SSE 7 9 4 5 1005.3 - 0.0
01/05:00am 28.2 35.5 27.9 98 0.2 NW 6 7 3 4 1005.0 - 0.0
01/04:30am 28.6 35.2 27.7 95 0.7 N 9 13 5 7 1004.6 - 0.0
01/04:00am 28.6 35.7 27.9 96 0.5 N 7 9 4 5 1004.7 - 0.0
01/03:30am 28.6 34.8 27.7 95 0.7 N 11 13 6 7 1004.4 - 0.0
01/03:00am 28.7 35.1 27.5 93 0.9 N 9 13 5 7 1004.5 1004.3 0.0
01/02:30am 29.0 35.0 27.4 91 1.2 NNW 11 13 6 7 1004.4 - 0.0
01/02:00am 29.0 34.4 27.2 90 1.3 NW 13 17 7 9 1004.6 - 0.0
01/01:30am 28.9 34.1 26.9 89 1.4 NW 13 17 7 9 1004.8 - 0.0
01/01:00am 29.0 33.4 26.8 88 1.6 NW 17 20 9 11 1005.1 - 0.0
01/12:30am 29.0 33.6 26.6 87 1.7 NNW 15 20 8 11 1005.6 - 0.0
01/12:00am 28.8 32.8 26.2 86 1.9 N 17 20 9 11 1006.0 1005.8 0.0
 
Date/Time
EST
Temp
°C
App
Temp
°C
Dew
Point
Rel
Hum
%
Delta-T
°C
Wind Press
QNH
hPa
Press
MSL
hPa
Rain
since 9 am
mm
Dir
 
Spd
km/h
Gust
km/h
Spd
kts
Gust
kts
31/11:30pm 28.9 34.2 26.5 87 1.7 N 11 13 6 7 1006.5 - 0.0
31/11:00pm 29.0 34.1 26.2 85 2.0 N 11 13 6 7 1006.7 - 0.0
31/10:30pm 29.3 33.9 25.9 82 2.4 N 13 19 7 10 1006.5 - 0.0
31/10:00pm 29.5 33.7 25.9 81 2.6 N 15 20 8 11 1006.2 - 0.0
31/09:30pm 29.6 33.1 26.0 81 2.6 N 19 26 10 14 1005.8 - 0.0
31/09:00pm 29.7 33.1 25.9 80 2.7 N 19 24 10 13 1005.7 1005.5 0.0
31/08:30pm 29.9 32.6 25.6 78 3.0 N 22 30 12 16 1005.5 - 0.0
31/08:00pm 30.4 33.7 25.7 76 3.3 N 19 24 10 13 1005.3 - 0.0
31/07:30pm 30.8 33.6 25.2 72 4.0 NNW 20 28 11 15 1005.0 - 0.0
31/07:00pm 31.6 34.4 25.2 69 4.5 NNW 20 28 11 15 1004.6 - 0.0
31/06:30pm 32.1 33.9 24.2 63 5.5 NNW 22 28 12 15 1004.2 - 0.0
31/06:00pm 32.9 33.9 24.1 60 6.2 NNW 26 35 14 19 1003.9 1003.7 0.0
31/05:30pm 33.2 34.4 23.8 57 6.6 NNW 24 32 13 17 1003.6 - 0.0
31/05:00pm 34.2 35.3 23.6 54 7.4 NNW 24 32 13 17 1003.7 - 0.0
31/04:30pm 34.3 35.6 23.3 52 7.6 NW 22 32 12 17 1003.8 - 0.0
31/04:00pm 34.3 35.7 23.6 53 7.5 NW 22 32 12 17 1003.9 - 0.0
31/03:30pm 34.3 36.1 23.6 53 7.5 NW 20 26 11 14 1004.0 - 0.0
31/03:00pm 34.2 36.2 23.9 55 7.2 N 20 28 11 15 1004.1 1003.9 0.0
31/02:30pm 34.3 36.9 23.9 54 7.3 NNW 17 26 9 14 1004.4 - 0.0
31/02:00pm 34.4 36.3 23.4 52 7.7 N 19 26 10 14 1004.5 - 0.0
31/01:30pm 34.4 37.1 23.4 52 7.7 NW 15 24 8 13 1004.7 - 0.0
31/01:00pm 34.1 36.8 22.8 51 7.8 NNW 13 20 7 11 1005.1 - 0.0
31/12:30pm 34.0 36.5 23.1 53 7.5 NNW 15 22 8 12 1005.5 - 0.0
31/12:00pm 33.6 36.0 23.6 56 7.0 N 17 28 9 15 1005.8 1005.6 0.0
31/11:30am 33.4 35.8 23.7 56 6.8 NNW 17 22 9 12 1005.9 - 0.0
31/11:00am 32.6 34.5 23.8 59 6.1 NNW 20 28 11 15 1006.2 - 0.0
31/10:30am 33.1 35.8 24.8 61 5.9 NNW 19 28 10 15 1006.4 - 0.0
31/10:00am 32.2 35.1 24.5 64 5.4 NNW 17 24 9 13 1006.6 - 0.0
31/09:30am 32.0 35.6 26.1 71 4.2 NNW 19 24 10 13 1006.4 - 0.0
31/09:00am 31.1 34.7 26.4 76 3.4 NNW 20 26 11 14 1006.2 1006.0 0.0
31/08:30am 30.5 34.3 26.4 79 2.9 NNW 19 26 10 14 1006.1 - 0.0
31/08:00am 29.7 34.6 26.9 85 2.0 NNW 15 20 8 11 1005.8 - 0.0
31/07:30am 28.4 34.5 27.0 92 1.0 N 9 13 5 7 1005.7 - 0.0
31/07:00am 27.6 33.6 27.4 99 0.1 N 11 15 6 8 1005.4 - 0.0
31/06:30am 27.2 33.8 27.2 100 0.0 NNW 7 9 4 5 1005.0 - 0.0
31/06:00am 27.4 33.4 27.4 100 0.0 NNW 11 13 6 7 1004.8 1004.6 0.0
31/05:30am 27.7 33.3 27.4 98 0.2 NNW 13 17 7 9 1004.8 - 0.0
31/05:00am 27.8 32.8 27.1 96 0.5 NNW 15 19 8 10 1004.6 - 0.0
31/04:30am 27.8 32.8 27.1 96 0.5 NNW 15 19 8 10 1004.4 - 0.0
31/04:00am 27.9 32.8 27.0 95 0.6 NNW 15 19 8 10 1004.4 - 0.0
31/03:30am 28.2 33.2 27.1 94 0.8 NNW 15 19 8 10 1004.7 - 0.0
31/03:00am 28.2 33.1 27.0 93 0.9 NNW 15 20 8 11 1004.7 1004.5 0.0
31/02:30am 28.3 33.3 27.1 93 0.9 NNW 15 20 8 11 1004.8 - 0.0
31/02:00am 28.5 32.6 26.9 91 1.1 NNW 19 24 10 13 1004.8 - 0.0
31/01:30am 28.3 32.9 27.1 93 0.9 N 17 22 9 12 1004.9 - 0.0
31/01:00am 28.4 32.8 26.8 91 1.1 NNW 17 22 9 12 1005.0 - 0.0
31/12:30am 28.4 32.8 26.8 91 1.1 NNW 17 22 9 12 1005.2 - 0.0
31/12:00am 28.4 33.2 26.8 91 1.1 NNW 15 20 8 11 1005.5 1005.3 0.0
 
Date/Time
EST
Temp
°C
App
Temp
°C
Dew
Point
Rel
Hum
%
Delta-T
°C
Wind Press
QNH
hPa
Press
MSL
hPa
Rain
since 9 am
mm
Dir
 
Spd
km/h
Gust
km/h
Spd
kts
Gust
kts
30/11:30pm 28.1 33.3 26.3 90 1.3 N 11 15 6 8 1005.6 - 0.0
30/11:00pm 28.2 33.2 26.0 88 1.6 N 11 15 6 8 1005.5 - 0.0
30/10:30pm 28.4 32.9 25.8 86 1.8 N 13 19 7 10 1005.4 - 0.0
30/10:00pm 28.6 32.6 25.6 84 2.1 N 15 20 8 11 1005.1 - 0.0
30/09:30pm 28.9 32.1 24.9 79 2.8 N 17 20 9 11 1004.7 - 0.0
30/09:00pm 29.3 32.2 24.4 75 3.4 N 17 24 9 13 1004.3 1004.1 0.0
30/08:30pm 29.8 31.8 24.0 71 4.0 N 20 30 11 16 1003.9 - 0.0
30/08:00pm 30.1 31.7 23.3 67 4.7 N 20 30 11 16 1003.6 - 0.0
30/07:30pm 30.8 31.7 21.6 58 6.2 N 19 24 10 13 1003.6 - 0.0
30/07:00pm 31.7 32.3 22.1 56 6.5 N 22 32 12 17 1003.3 - 0.0
30/06:30pm 32.7 31.9 20.9 49 7.9 N 26 35 14 19 1003.0 - 0.0
30/06:00pm 34.1 33.0 18.6 40 10.1 N 22 32 12 17 1002.9 - 0.0
30/05:30pm 35.3 33.7 18.4 37 11.0 NNW 24 28 13 15 1002.9 - 0.0
30/05:00pm 36.2 34.4 16.9 32 12.4 NNW 22 28 12 15 1002.7 - 0.0
30/04:30pm 36.4 34.6 17.0 31 12.5 NNW 22 28 12 15 1002.6 - 0.0
30/04:00pm 36.4 35.4 16.5 30 12.7 N 17 24 9 13 1002.6 - 0.0
30/03:30pm 36.3 35.4 15.9 29 12.9 NNW 15 26 8 14 1002.8 - 0.0
30/03:00pm 36.6 36.8 16.7 30 12.8 NW 11 20 6 11 1003.0 1002.9 0.0
30/02:30pm 36.5 36.6 15.6 29 13.2 WNW 9 20 5 11 1003.4 - 0.0
30/02:00pm 36.3 36.4 17.4 32 12.2 WNW 13 19 7 10 1003.7 - 0.0
30/01:30pm 36.7 37.0 17.8 32 12.3 NW 13 20 7 11 1003.9 - 0.0
30/01:00pm 35.7 36.5 17.4 33 11.8 NW 9 17 5 9 1004.2 - 0.0
30/12:30pm 35.2 35.8 18.7 37 10.8 NNW 13 24 7 13 1004.5 - 0.0
30/12:00pm 35.0 35.8 19.0 39 10.6 NW 13 20 7 11 1004.7 1004.5 0.0
30/11:30am 34.2 33.7 17.8 37 10.6 WNW 17 20 9 11 1005.1 - 0.0
30/11:00am 33.6 34.5 19.3 43 9.4 W 13 19 7 10 1005.3 - 0.0
30/10:30am 33.2 33.9 20.4 47 8.5 WNW 17 22 9 12 1005.4 - 0.0
30/10:00am 32.7 34.5 21.2 50 7.7 W 13 17 7 9 1005.4 - 0.0
30/09:30am 31.8 34.1 22.8 59 6.2 W 15 20 8 11 1005.3 - 0.0
30/09:00am 30.6 33.4 25.2 73 3.8 WNW 20 26 11 14 1005.2 1005.0 0.0
30/08:30am 29.5 33.2 25.7 80 2.7 WNW 17 26 9 14 1004.9 - 0.0
30/08:00am 28.1 32.7 25.9 88 1.6 WNW 13 19 7 10 1004.8 - 0.0
30/07:30am 26.8 31.8 25.4 92 1.0 WNW 9 13 5 7 1004.8 - 0.0
30/07:00am 25.7 30.6 25.2 97 0.3 WNW 9 11 5 6 1004.5 - 0.0
30/06:30am 25.3 30.0 25.0 98 0.2 NW 9 13 5 7 1004.1 - 0.0
30/06:00am 25.1 29.8 24.9 99 0.1 NW 9 11 5 6 1003.9 1003.7 0.0
30/05:30am 25.3 30.1 25.1 99 0.1 NW 9 11 5 6 1003.6 - 0.0
30/05:00am 25.2 30.1 25.2 100 0.0 NW 9 11 5 6 1003.5 - 0.0
30/04:30am 25.3 30.0 25.0 98 0.2 NW 9 11 5 6 1003.4 - 0.0
30/04:00am 25.3 30.0 25.0 98 0.2 NW 9 13 5 7 1003.4 - 0.0
30/03:30am 25.3 29.9 24.8 97 0.3 WNW 9 11 5 6 1003.4 - 0.0
30/03:00am 25.1 29.2 24.6 97 0.3 WNW 11 13 6 7 1003.6 1003.4 0.0
30/02:30am 25.1 29.4 24.2 95 0.6 WNW 9 11 5 6 1003.7 - 0.0
30/02:00am 25.4 30.0 24.2 93 0.8 NW 7 9 4 5 1003.9 - 0.0
30/01:30am 25.5 30.2 24.3 93 0.8 NW 7 11 4 6 1004.0 - 0.0
30/01:00am 25.9 29.5 23.8 88 1.4 NW 11 13 6 7 1004.2 - 0.0
30/12:30am 26.2 30.4 23.5 85 1.8 NNW 7 11 4 6 1004.3 - 0.0
30/12:00am 26.0 30.2 23.5 86 1.7 WNW 7 7 4 4 1004.4 - 0.0
 
Date/Time
EST
Temp
°C
App
Temp
°C
Dew
Point
Rel
Hum
%
Delta-T
°C
Wind Press
QNH
hPa
Press
MSL
hPa
Rain
since 9 am
mm
Dir
 
Spd
km/h
Gust
km/h
Spd
kts
Gust
kts
29/11:30pm 26.6 30.4 23.5 83 2.1 NW 9 11 5 6 1004.6 - 0.0
29/11:00pm 26.7 30.5 23.4 82 2.3 WNW 9 11 5 6 1004.9 - 0.0
29/10:30pm 27.2 31.0 23.4 80 2.6 NNW 9 11 5 6 1004.8 - 0.0
29/10:00pm 27.4 30.7 22.6 75 3.3 N 9 11 5 6 1004.6 - 0.0
29/09:30pm 27.9 30.5 21.9 70 4.0 N 11 13 6 7 1004.5 - 0.0
29/09:00pm 28.2 30.0 21.2 65 4.7 NNW 13 15 7 8 1004.4 - 0.0
29/08:30pm 29.1 30.8 19.4 55 6.3 NNW 9 11 5 6 1004.0 - 0.0
29/08:00pm 30.5 30.8 17.9 47 8.1 NNW 13 17 7 9 1003.8 - 0.0
29/07:30pm 31.6 31.7 17.5 43 9.0 NNW 13 17 7 9 1003.4 - 0.0
29/07:00pm 32.8 32.5 17.4 39 9.9 NNW 15 19 8 10 1002.9 - 0.0

Other Formats:

Comma delimited format used in spreadsheet applications
http://www.bom.gov.au/fwo/IDQ60801/IDQ60801.94266.axf

JavaScript Object Notation format (JSON) in row-major order
http://www.bom.gov.au/fwo/IDQ60801/IDQ60801.94266.json